sensor_id;sensor_type;location;lat;lon;timestamp;P1;durP1;ratioP1;P2;durP2;ratioP2
71637;SDS011;59485;43.542;-5.676;2023-04-24T00:00:40;12.90;;;2.33;;
71637;SDS011;59485;43.542;-5.676;2023-04-24T00:03:06;9.85;;;1.67;;
71637;SDS011;59485;43.542;-5.676;2023-04-24T00:05:32;15.30;;;2.00;;
71637;SDS011;59485;43.542;-5.676;2023-04-24T00:07:57;10.67;;;2.30;;
71637;SDS011;59485;43.542;-5.676;2023-04-24T00:10:23;7.72;;;2.10;;
71637;SDS011;59485;43.542;-5.676;2023-04-24T00:12:49;14.43;;;2.13;;
71637;SDS011;59485;43.542;-5.676;2023-04-24T00:15:14;12.27;;;2.73;;
71637;SDS011;59485;43.542;-5.676;2023-04-24T00:17:40;12.90;;;1.73;;
71637;SDS011;59485;43.542;-5.676;2023-04-24T00:20:05;10.03;;;1.97;;
71637;SDS011;59485;43.542;-5.676;2023-04-24T00:22:32;11.52;;;2.28;;
71637;SDS011;59485;43.542;-5.676;2023-04-24T00:24:57;13.73;;;2.20;;
71637;SDS011;59485;43.542;-5.676;2023-04-24T00:27:26;14.30;;;2.17;;
71637;SDS011;59485;43.542;-5.676;2023-04-24T00:29:51;17.50;;;2.20;;
71637;SDS011;59485;43.542;-5.676;2023-04-24T00:32:17;28.07;;;2.90;;
71637;SDS011;59485;43.542;-5.676;2023-04-24T00:34:42;11.73;;;2.27;;
71637;SDS011;59485;43.542;-5.676;2023-04-24T00:37:08;12.98;;;2.13;;
71637;SDS011;59485;43.542;-5.676;2023-04-24T00:39:34;12.40;;;2.33;;
71637;SDS011;59485;43.542;-5.676;2023-04-24T00:41:59;9.98;;;2.15;;
71637;SDS011;59485;43.542;-5.676;2023-04-24T00:44:26;17.70;;;2.50;;
71637;SDS011;59485;43.542;-5.676;2023-04-24T00:46:52;12.07;;;1.88;;
71637;SDS011;59485;43.542;-5.676;2023-04-24T00:49:22;8.80;;;2.35;;
71637;SDS011;59485;43.542;-5.676;2023-04-24T00:51:48;14.20;;;2.43;;
71637;SDS011;59485;43.542;-5.676;2023-04-24T00:54:16;9.18;;;1.90;;
71637;SDS011;59485;43.542;-5.676;2023-04-24T00:56:42;13.45;;;2.30;;
71637;SDS011;59485;43.542;-5.676;2023-04-24T00:59:08;11.30;;;2.13;;
71637;SDS011;59485;43.542;-5.676;2023-04-24T01:01:34;10.90;;;2.80;;
71637;SDS011;59485;43.542;-5.676;2023-04-24T01:04:00;13.20;;;2.45;;
71637;SDS011;59485;43.542;-5.676;2023-04-24T01:06:27;12.27;;;2.35;;
71637;SDS011;59485;43.542;-5.676;2023-04-24T01:08:54;11.13;;;1.92;;
71637;SDS011;59485;43.542;-5.676;2023-04-24T01:11:20;12.55;;;1.95;;
71637;SDS011;59485;43.542;-5.676;2023-04-24T01:13:46;9.17;;;1.60;;
71637;SDS011;59485;43.542;-5.676;2023-04-24T01:16:13;12.43;;;1.70;;
71637;SDS011;59485;43.542;-5.676;2023-04-24T01:18:42;11.25;;;1.63;;
71637;SDS011;59485;43.542;-5.676;2023-04-24T01:21:09;9.50;;;1.48;;
71637;SDS011;59485;43.542;-5.676;2023-04-24T01:23:38;12.95;;;1.80;;
71637;SDS011;59485;43.542;-5.676;2023-04-24T01:26:04;9.37;;;1.73;;
71637;SDS011;59485;43.542;-5.676;2023-04-24T01:28:30;10.57;;;2.00;;
71637;SDS011;59485;43.542;-5.676;2023-04-24T01:30:56;9.67;;;1.50;;
71637;SDS011;59485;43.542;-5.676;2023-04-24T01:33:21;11.77;;;1.83;;
71637;SDS011;59485;43.542;-5.676;2023-04-24T01:35:48;9.00;;;2.30;;
71637;SDS011;59485;43.542;-5.676;2023-04-24T01:38:14;5.83;;;1.20;;
71637;SDS011;59485;43.542;-5.676;2023-04-24T01:40:40;9.77;;;1.83;;
71637;SDS011;59485;43.542;-5.676;2023-04-24T01:43:05;9.57;;;1.10;;
71637;SDS011;59485;43.542;-5.676;2023-04-24T01:45:31;8.70;;;1.27;;
71637;SDS011;59485;43.542;-5.676;2023-04-24T01:47:57;7.78;;;1.45;;
71637;SDS011;59485;43.542;-5.676;2023-04-24T01:50:23;14.80;;;2.40;;
71637;SDS011;59485;43.542;-5.676;2023-04-24T01:52:49;12.95;;;2.05;;
71637;SDS011;59485;43.542;-5.676;2023-04-24T01:55:15;11.93;;;2.60;;
71637;SDS011;59485;43.542;-5.676;2023-04-24T01:57:40;15.93;;;3.93;;
71637;SDS011;59485;43.542;-5.676;2023-04-24T02:00:06;18.33;;;3.53;;
71637;SDS011;59485;43.542;-5.676;2023-04-24T02:02:32;15.57;;;3.58;;
71637;SDS011;59485;43.542;-5.676;2023-04-24T02:04:58;16.80;;;3.13;;
71637;SDS011;59485;43.542;-5.676;2023-04-24T02:07:24;19.03;;;2.90;;
71637;SDS011;59485;43.542;-5.676;2023-04-24T02:09:50;17.35;;;2.90;;
71637;SDS011;59485;43.542;-5.676;2023-04-24T02:12:15;20.43;;;3.17;;
71637;SDS011;59485;43.542;-5.676;2023-04-24T02:14:42;20.08;;;3.45;;
71637;SDS011;59485;43.542;-5.676;2023-04-24T02:17:08;18.50;;;3.15;;
71637;SDS011;59485;43.542;-5.676;2023-04-24T02:19:34;17.85;;;4.05;;
71637;SDS011;59485;43.542;-5.676;2023-04-24T02:22:00;17.20;;;3.30;;
71637;SDS011;59485;43.542;-5.676;2023-04-24T02:24:26;16.87;;;3.50;;
71637;SDS011;59485;43.542;-5.676;2023-04-24T02:26:51;19.83;;;3.50;;
71637;SDS011;59485;43.542;-5.676;2023-04-24T02:29:17;19.27;;;4.47;;
71637;SDS011;59485;43.542;-5.676;2023-04-24T02:31:42;16.83;;;4.00;;
71637;SDS011;59485;43.542;-5.676;2023-04-24T02:34:08;22.53;;;4.53;;
71637;SDS011;59485;43.542;-5.676;2023-04-24T02:36:34;20.20;;;5.10;;
71637;SDS011;59485;43.542;-5.676;2023-04-24T02:38:59;18.95;;;4.53;;
71637;SDS011;59485;43.542;-5.676;2023-04-24T02:41:26;22.35;;;4.05;;
71637;SDS011;59485;43.542;-5.676;2023-04-24T02:43:56;22.27;;;4.70;;
71637;SDS011;59485;43.542;-5.676;2023-04-24T02:46:22;24.13;;;5.43;;
71637;SDS011;59485;43.542;-5.676;2023-04-24T02:48:48;19.90;;;4.67;;
71637;SDS011;59485;43.542;-5.676;2023-04-24T02:51:13;23.00;;;5.15;;
71637;SDS011;59485;43.542;-5.676;2023-04-24T02:53:39;19.77;;;4.43;;
71637;SDS011;59485;43.542;-5.676;2023-04-24T02:56:04;24.70;;;4.87;;
71637;SDS011;59485;43.542;-5.676;2023-04-24T02:58:30;17.70;;;4.57;;
71637;SDS011;59485;43.542;-5.676;2023-04-24T03:00:55;20.67;;;5.57;;
71637;SDS011;59485;43.542;-5.676;2023-04-24T03:03:21;21.13;;;4.43;;
71637;SDS011;59485;43.542;-5.676;2023-04-24T03:05:47;21.67;;;5.45;;
71637;SDS011;59485;43.542;-5.676;2023-04-24T03:08:12;23.63;;;7.10;;
71637;SDS011;59485;43.542;-5.676;2023-04-24T03:10:39;20.70;;;5.60;;
71637;SDS011;59485;43.542;-5.676;2023-04-24T03:13:05;24.45;;;6.15;;
71637;SDS011;59485;43.542;-5.676;2023-04-24T03:15:30;20.23;;;5.20;;
71637;SDS011;59485;43.542;-5.676;2023-04-24T03:17:56;25.33;;;5.30;;
71637;SDS011;59485;43.542;-5.676;2023-04-24T03:20:21;22.80;;;4.88;;
71637;SDS011;59485;43.542;-5.676;2023-04-24T03:22:47;18.10;;;5.07;;
71637;SDS011;59485;43.542;-5.676;2023-04-24T03:25:12;18.30;;;5.03;;
71637;SDS011;59485;43.542;-5.676;2023-04-24T03:27:38;16.13;;;4.60;;
71637;SDS011;59485;43.542;-5.676;2023-04-24T03:30:05;18.25;;;4.80;;
71637;SDS011;59485;43.542;-5.676;2023-04-24T03:32:31;13.57;;;4.07;;
71637;SDS011;59485;43.542;-5.676;2023-04-24T03:34:57;14.05;;;4.00;;
71637;SDS011;59485;43.542;-5.676;2023-04-24T03:37:22;8.30;;;2.83;;
71637;SDS011;59485;43.542;-5.676;2023-04-24T03:39:48;10.87;;;2.50;;
71637;SDS011;59485;43.542;-5.676;2023-04-24T03:42:13;7.32;;;2.58;;
71637;SDS011;59485;43.542;-5.676;2023-04-24T03:44:40;7.97;;;3.58;;
71637;SDS011;59485;43.542;-5.676;2023-04-24T03:47:05;9.17;;;2.80;;
71637;SDS011;59485;43.542;-5.676;2023-04-24T03:49:31;7.40;;;3.00;;
71637;SDS011;59485;43.542;-5.676;2023-04-24T03:51:56;10.80;;;3.30;;
71637;SDS011;59485;43.542;-5.676;2023-04-24T03:54:22;10.90;;;2.90;;
71637;SDS011;59485;43.542;-5.676;2023-04-24T03:56:47;10.40;;;2.80;;
71637;SDS011;59485;43.542;-5.676;2023-04-24T03:59:13;7.65;;;2.72;;
71637;SDS011;59485;43.542;-5.676;2023-04-24T04:01:38;10.00;;;2.40;;
71637;SDS011;59485;43.542;-5.676;2023-04-24T04:04:05;6.13;;;2.58;;
71637;SDS011;59485;43.542;-5.676;2023-04-24T04:06:30;7.53;;;1.83;;
71637;SDS011;59485;43.542;-5.676;2023-04-24T04:08:56;7.77;;;2.30;;
71637;SDS011;59485;43.542;-5.676;2023-04-24T04:11:22;4.72;;;2.00;;
71637;SDS011;59485;43.542;-5.676;2023-04-24T04:13:48;6.32;;;1.98;;
71637;SDS011;59485;43.542;-5.676;2023-04-24T04:16:14;6.67;;;2.43;;
71637;SDS011;59485;43.542;-5.676;2023-04-24T04:18:42;5.63;;;1.75;;
71637;SDS011;59485;43.542;-5.676;2023-04-24T04:21:07;5.65;;;1.77;;
71637;SDS011;59485;43.542;-5.676;2023-04-24T04:23:33;9.10;;;2.00;;
71637;SDS011;59485;43.542;-5.676;2023-04-24T04:25:58;5.43;;;1.80;;
71637;SDS011;59485;43.542;-5.676;2023-04-24T04:28:24;6.22;;;1.50;;
71637;SDS011;59485;43.542;-5.676;2023-04-24T04:30:51;6.15;;;2.00;;
71637;SDS011;59485;43.542;-5.676;2023-04-24T04:33:20;6.05;;;1.27;;
71637;SDS011;59485;43.542;-5.676;2023-04-24T04:35:46;5.28;;;1.42;;
71637;SDS011;59485;43.542;-5.676;2023-04-24T04:38:17;6.33;;;2.10;;
71637;SDS011;59485;43.542;-5.676;2023-04-24T04:40:43;6.13;;;1.88;;
71637;SDS011;59485;43.542;-5.676;2023-04-24T04:43:09;6.85;;;2.15;;
71637;SDS011;59485;43.542;-5.676;2023-04-24T04:45:36;9.30;;;2.10;;
71637;SDS011;59485;43.542;-5.676;2023-04-24T04:48:04;5.70;;;2.60;;
71637;SDS011;59485;43.542;-5.676;2023-04-24T04:50:32;7.33;;;2.10;;
71637;SDS011;59485;43.542;-5.676;2023-04-24T04:52:58;7.63;;;2.15;;
71637;SDS011;59485;43.542;-5.676;2023-04-24T04:55:23;5.03;;;1.90;;
71637;SDS011;59485;43.542;-5.676;2023-04-24T04:57:49;6.65;;;1.90;;
71637;SDS011;59485;43.542;-5.676;2023-04-24T05:00:14;8.37;;;1.90;;
71637;SDS011;59485;43.542;-5.676;2023-04-24T05:02:40;5.57;;;2.10;;
71637;SDS011;59485;43.542;-5.676;2023-04-24T05:05:06;6.90;;;1.77;;
71637;SDS011;59485;43.542;-5.676;2023-04-24T05:07:32;6.75;;;1.85;;
71637;SDS011;59485;43.542;-5.676;2023-04-24T05:09:58;8.83;;;1.90;;
71637;SDS011;59485;43.542;-5.676;2023-04-24T05:12:23;5.63;;;2.17;;
71637;SDS011;59485;43.542;-5.676;2023-04-24T05:14:49;5.50;;;1.70;;
71637;SDS011;59485;43.542;-5.676;2023-04-24T05:17:15;8.43;;;2.00;;
71637;SDS011;59485;43.542;-5.676;2023-04-24T05:19:41;7.63;;;2.85;;
71637;SDS011;59485;43.542;-5.676;2023-04-24T05:22:07;6.53;;;2.45;;
71637;SDS011;59485;43.542;-5.676;2023-04-24T05:24:33;6.17;;;2.37;;
71637;SDS011;59485;43.542;-5.676;2023-04-24T05:26:59;5.72;;;2.40;;
71637;SDS011;59485;43.542;-5.676;2023-04-24T05:29:24;8.60;;;2.43;;
71637;SDS011;59485;43.542;-5.676;2023-04-24T05:31:51;9.27;;;2.85;;
71637;SDS011;59485;43.542;-5.676;2023-04-24T05:34:17;8.27;;;3.58;;
71637;SDS011;59485;43.542;-5.676;2023-04-24T05:36:43;8.33;;;3.10;;
71637;SDS011;59485;43.542;-5.676;2023-04-24T05:39:08;11.77;;;3.50;;
71637;SDS011;59485;43.542;-5.676;2023-04-24T05:41:34;9.53;;;4.10;;
71637;SDS011;59485;43.542;-5.676;2023-04-24T05:44:00;13.32;;;4.43;;
71637;SDS011;59485;43.542;-5.676;2023-04-24T05:46:25;10.87;;;4.37;;
71637;SDS011;59485;43.542;-5.676;2023-04-24T05:48:51;9.88;;;4.03;;
71637;SDS011;59485;43.542;-5.676;2023-04-24T05:51:16;10.30;;;3.60;;
71637;SDS011;59485;43.542;-5.676;2023-04-24T05:53:42;10.00;;;4.17;;
71637;SDS011;59485;43.542;-5.676;2023-04-24T05:56:07;17.27;;;4.82;;
71637;SDS011;59485;43.542;-5.676;2023-04-24T05:58:33;15.77;;;5.17;;
71637;SDS011;59485;43.542;-5.676;2023-04-24T06:00:59;14.43;;;5.07;;
71637;SDS011;59485;43.542;-5.676;2023-04-24T06:03:26;19.60;;;5.05;;
71637;SDS011;59485;43.542;-5.676;2023-04-24T06:05:52;16.15;;;5.50;;
71637;SDS011;59485;43.542;-5.676;2023-04-24T06:08:18;18.98;;;5.10;;
71637;SDS011;59485;43.542;-5.676;2023-04-24T06:10:44;11.13;;;5.53;;
71637;SDS011;59485;43.542;-5.676;2023-04-24T06:13:10;13.70;;;4.00;;
71637;SDS011;59485;43.542;-5.676;2023-04-24T06:15:38;10.05;;;4.63;;
71637;SDS011;59485;43.542;-5.676;2023-04-24T06:18:04;16.90;;;5.40;;
71637;SDS011;59485;43.542;-5.676;2023-04-24T06:20:29;13.50;;;4.68;;
71637;SDS011;59485;43.542;-5.676;2023-04-24T06:22:55;13.00;;;5.90;;
71637;SDS011;59485;43.542;-5.676;2023-04-24T06:25:21;12.70;;;4.68;;
71637;SDS011;59485;43.542;-5.676;2023-04-24T06:27:46;13.30;;;5.37;;
71637;SDS011;59485;43.542;-5.676;2023-04-24T06:30:12;16.00;;;5.47;;
71637;SDS011;59485;43.542;-5.676;2023-04-24T06:32:37;15.90;;;6.05;;
71637;SDS011;59485;43.542;-5.676;2023-04-24T06:35:03;14.67;;;6.17;;
71637;SDS011;59485;43.542;-5.676;2023-04-24T06:37:29;14.82;;;6.53;;
71637;SDS011;59485;43.542;-5.676;2023-04-24T06:39:55;15.17;;;6.57;;
71637;SDS011;59485;43.542;-5.676;2023-04-24T06:42:20;13.45;;;7.00;;
71637;SDS011;59485;43.542;-5.676;2023-04-24T06:44:47;13.83;;;6.57;;
71637;SDS011;59485;43.542;-5.676;2023-04-24T06:47:12;15.25;;;6.00;;
71637;SDS011;59485;43.542;-5.676;2023-04-24T06:49:38;16.13;;;6.60;;
71637;SDS011;59485;43.542;-5.676;2023-04-24T06:52:05;12.77;;;6.20;;
71637;SDS011;59485;43.542;-5.676;2023-04-24T06:54:31;14.65;;;5.38;;
71637;SDS011;59485;43.542;-5.676;2023-04-24T06:56:58;10.95;;;6.32;;
71637;SDS011;59485;43.542;-5.676;2023-04-24T06:59:24;13.00;;;6.07;;
71637;SDS011;59485;43.542;-5.676;2023-04-24T07:01:50;11.48;;;5.47;;
71637;SDS011;59485;43.542;-5.676;2023-04-24T07:04:18;11.10;;;5.80;;
71637;SDS011;59485;43.542;-5.676;2023-04-24T07:06:47;13.25;;;6.28;;
71637;SDS011;59485;43.542;-5.676;2023-04-24T07:09:14;11.95;;;6.07;;
71637;SDS011;59485;43.542;-5.676;2023-04-24T07:11:41;10.90;;;5.60;;
71637;SDS011;59485;43.542;-5.676;2023-04-24T07:14:07;12.43;;;5.05;;
71637;SDS011;59485;43.542;-5.676;2023-04-24T07:16:33;9.73;;;4.80;;
71637;SDS011;59485;43.542;-5.676;2023-04-24T07:18:59;10.33;;;5.57;;
71637;SDS011;59485;43.542;-5.676;2023-04-24T07:21:26;12.30;;;6.07;;
71637;SDS011;59485;43.542;-5.676;2023-04-24T07:23:52;10.85;;;5.82;;
71637;SDS011;59485;43.542;-5.676;2023-04-24T07:26:19;13.63;;;7.03;;
71637;SDS011;59485;43.542;-5.676;2023-04-24T07:28:45;11.70;;;6.50;;
71637;SDS011;59485;43.542;-5.676;2023-04-24T07:31:11;12.05;;;6.47;;
71637;SDS011;59485;43.542;-5.676;2023-04-24T07:33:37;13.00;;;6.63;;
71637;SDS011;59485;43.542;-5.676;2023-04-24T07:36:02;14.48;;;6.80;;
71637;SDS011;59485;43.542;-5.676;2023-04-24T07:38:29;13.32;;;6.28;;
71637;SDS011;59485;43.542;-5.676;2023-04-24T07:40:55;11.20;;;6.70;;
71637;SDS011;59485;43.542;-5.676;2023-04-24T07:43:21;13.30;;;6.22;;
71637;SDS011;59485;43.542;-5.676;2023-04-24T07:45:48;11.60;;;6.43;;
71637;SDS011;59485;43.542;-5.676;2023-04-24T07:48:16;12.63;;;6.22;;
71637;SDS011;59485;43.542;-5.676;2023-04-24T07:50:43;11.45;;;6.32;;
71637;SDS011;59485;43.542;-5.676;2023-04-24T07:53:09;15.18;;;6.53;;
71637;SDS011;59485;43.542;-5.676;2023-04-24T07:55:35;11.82;;;5.78;;
71637;SDS011;59485;43.542;-5.676;2023-04-24T07:58:01;10.17;;;5.23;;
71637;SDS011;59485;43.542;-5.676;2023-04-24T08:00:27;13.90;;;5.10;;
71637;SDS011;59485;43.542;-5.676;2023-04-24T08:02:52;10.57;;;3.90;;
71637;SDS011;59485;43.542;-5.676;2023-04-24T08:05:18;11.40;;;4.13;;
71637;SDS011;59485;43.542;-5.676;2023-04-24T08:07:45;9.23;;;3.03;;
71637;SDS011;59485;43.542;-5.676;2023-04-24T08:10:13;8.23;;;3.53;;
71637;SDS011;59485;43.542;-5.676;2023-04-24T08:12:39;10.57;;;2.57;;
71637;SDS011;59485;43.542;-5.676;2023-04-24T08:15:05;18.27;;;3.88;;
71637;SDS011;59485;43.542;-5.676;2023-04-24T08:17:31;11.98;;;3.10;;
71637;SDS011;59485;43.542;-5.676;2023-04-24T08:19:57;11.87;;;3.10;;
71637;SDS011;59485;43.542;-5.676;2023-04-24T08:22:26;9.77;;;2.60;;
71637;SDS011;59485;43.542;-5.676;2023-04-24T08:24:53;10.00;;;2.42;;
71637;SDS011;59485;43.542;-5.676;2023-04-24T08:27:19;11.95;;;2.22;;
71637;SDS011;59485;43.542;-5.676;2023-04-24T08:29:44;10.40;;;2.60;;
71637;SDS011;59485;43.542;-5.676;2023-04-24T08:32:10;9.65;;;2.80;;
71637;SDS011;59485;43.542;-5.676;2023-04-24T08:34:35;13.77;;;3.10;;
71637;SDS011;59485;43.542;-5.676;2023-04-24T08:37:01;14.73;;;2.77;;
71637;SDS011;59485;43.542;-5.676;2023-04-24T08:39:27;16.10;;;3.53;;
71637;SDS011;59485;43.542;-5.676;2023-04-24T08:41:54;12.05;;;2.85;;
71637;SDS011;59485;43.542;-5.676;2023-04-24T08:44:20;10.30;;;2.20;;
71637;SDS011;59485;43.542;-5.676;2023-04-24T08:46:47;13.43;;;2.17;;
71637;SDS011;59485;43.542;-5.676;2023-04-24T08:49:14;10.70;;;2.30;;
71637;SDS011;59485;43.542;-5.676;2023-04-24T08:51:41;14.70;;;2.20;;
71637;SDS011;59485;43.542;-5.676;2023-04-24T08:54:07;13.07;;;2.30;;
71637;SDS011;59485;43.542;-5.676;2023-04-24T08:56:33;9.70;;;2.07;;
71637;SDS011;59485;43.542;-5.676;2023-04-24T08:59:03;10.35;;;2.10;;
71637;SDS011;59485;43.542;-5.676;2023-04-24T09:01:29;10.60;;;1.50;;
71637;SDS011;59485;43.542;-5.676;2023-04-24T09:03:58;7.93;;;1.65;;
71637;SDS011;59485;43.542;-5.676;2023-04-24T09:06:27;14.65;;;4.18;;
71637;SDS011;59485;43.542;-5.676;2023-04-24T09:08:53;8.93;;;2.33;;
71637;SDS011;59485;43.542;-5.676;2023-04-24T09:11:21;11.05;;;2.47;;
71637;SDS011;59485;43.542;-5.676;2023-04-24T09:13:49;12.05;;;2.30;;
71637;SDS011;59485;43.542;-5.676;2023-04-24T09:16:16;10.63;;;1.92;;
71637;SDS011;59485;43.542;-5.676;2023-04-24T09:18:42;10.43;;;2.27;;
71637;SDS011;59485;43.542;-5.676;2023-04-24T09:21:07;14.38;;;2.67;;
71637;SDS011;59485;43.542;-5.676;2023-04-24T09:23:34;10.40;;;2.17;;
71637;SDS011;59485;43.542;-5.676;2023-04-24T09:26:00;8.20;;;1.50;;
71637;SDS011;59485;43.542;-5.676;2023-04-24T09:28:30;12.52;;;2.00;;
71637;SDS011;59485;43.542;-5.676;2023-04-24T09:33:34;12.70;;;2.45;;
71637;SDS011;59485;43.542;-5.676;2023-04-24T09:36:00;10.90;;;2.30;;
71637;SDS011;59485;43.542;-5.676;2023-04-24T09:40:59;11.00;;;2.25;;
71637;SDS011;59485;43.542;-5.676;2023-04-24T09:43:26;8.70;;;1.57;;
71637;SDS011;59485;43.542;-5.676;2023-04-24T09:45:52;9.57;;;1.42;;
71637;SDS011;59485;43.542;-5.676;2023-04-24T09:48:42;13.45;;;2.33;;
71637;SDS011;59485;43.542;-5.676;2023-04-24T09:51:07;9.70;;;1.77;;
71637;SDS011;59485;43.542;-5.676;2023-04-24T09:53:35;9.90;;;2.40;;
71637;SDS011;59485;43.542;-5.676;2023-04-24T09:56:10;10.47;;;1.70;;
71637;SDS011;59485;43.542;-5.676;2023-04-24T09:58:38;12.57;;;1.60;;
71637;SDS011;59485;43.542;-5.676;2023-04-24T10:01:04;10.43;;;1.80;;
71637;SDS011;59485;43.542;-5.676;2023-04-24T10:03:30;9.63;;;1.83;;
71637;SDS011;59485;43.542;-5.676;2023-04-24T10:06:02;13.13;;;1.80;;
71637;SDS011;59485;43.542;-5.676;2023-04-24T10:08:34;10.82;;;2.55;;
71637;SDS011;59485;43.542;-5.676;2023-04-24T10:11:01;11.20;;;1.77;;
71637;SDS011;59485;43.542;-5.676;2023-04-24T10:13:27;8.50;;;2.33;;
71637;SDS011;59485;43.542;-5.676;2023-04-24T10:15:53;13.63;;;2.05;;
71637;SDS011;59485;43.542;-5.676;2023-04-24T10:18:19;9.07;;;2.00;;
71637;SDS011;59485;43.542;-5.676;2023-04-24T10:20:46;11.50;;;1.93;;
71637;SDS011;59485;43.542;-5.676;2023-04-24T10:23:12;9.23;;;1.58;;
71637;SDS011;59485;43.542;-5.676;2023-04-24T10:25:38;14.05;;;1.80;;
71637;SDS011;59485;43.542;-5.676;2023-04-24T10:28:04;10.18;;;1.65;;
71637;SDS011;59485;43.542;-5.676;2023-04-24T10:30:31;7.40;;;1.63;;
71637;SDS011;59485;43.542;-5.676;2023-04-24T10:33:04;15.15;;;2.75;;
71637;SDS011;59485;43.542;-5.676;2023-04-24T10:35:32;9.85;;;1.52;;
71637;SDS011;59485;43.542;-5.676;2023-04-24T10:38:09;10.50;;;1.70;;
71637;SDS011;59485;43.542;-5.676;2023-04-24T10:40:38;9.73;;;1.45;;
71637;SDS011;59485;43.542;-5.676;2023-04-24T10:43:04;11.43;;;1.63;;
71637;SDS011;59485;43.542;-5.676;2023-04-24T10:45:33;8.77;;;1.77;;
71637;SDS011;59485;43.542;-5.676;2023-04-24T10:47:59;7.47;;;1.88;;
71637;SDS011;59485;43.542;-5.676;2023-04-24T10:50:28;9.33;;;2.10;;
71637;SDS011;59485;43.542;-5.676;2023-04-24T10:53:04;8.68;;;1.73;;
71637;SDS011;59485;43.542;-5.676;2023-04-24T10:55:45;12.98;;;2.15;;
71637;SDS011;59485;43.542;-5.676;2023-04-24T10:58:14;10.50;;;1.60;;
71637;SDS011;59485;43.542;-5.676;2023-04-24T11:00:41;11.15;;;2.13;;
71637;SDS011;59485;43.542;-5.676;2023-04-24T11:03:25;11.07;;;2.30;;
71637;SDS011;59485;43.542;-5.676;2023-04-24T11:08:26;8.50;;;2.53;;
71637;SDS011;59485;43.542;-5.676;2023-04-24T11:11:15;10.07;;;2.90;;
71637;SDS011;59485;43.542;-5.676;2023-04-24T11:19:07;11.00;;;2.40;;
71637;SDS011;59485;43.542;-5.676;2023-04-24T11:27:14;8.68;;;2.25;;
71637;SDS011;59485;43.542;-5.676;2023-04-24T11:29:59;9.90;;;2.50;;
71637;SDS011;59485;43.542;-5.676;2023-04-24T11:32:29;9.82;;;2.70;;
71637;SDS011;59485;43.542;-5.676;2023-04-24T11:37:43;11.25;;;2.03;;
71637;SDS011;59485;43.542;-5.676;2023-04-24T11:40:20;11.05;;;2.83;;
71637;SDS011;59485;43.542;-5.676;2023-04-24T11:42:48;8.00;;;2.13;;
71637;SDS011;59485;43.542;-5.676;2023-04-24T11:45:15;10.85;;;2.25;;
71637;SDS011;59485;43.542;-5.676;2023-04-24T11:47:44;10.80;;;2.08;;
71637;SDS011;59485;43.542;-5.676;2023-04-24T11:50:17;23.52;;;9.35;;
71637;SDS011;59485;43.542;-5.676;2023-04-24T11:52:44;13.98;;;2.58;;
71637;SDS011;59485;43.542;-5.676;2023-04-24T11:57:39;11.50;;;2.28;;
71637;SDS011;59485;43.542;-5.676;2023-04-24T12:00:14;11.83;;;1.80;;
71637;SDS011;59485;43.542;-5.676;2023-04-24T12:02:44;9.68;;;2.25;;
71637;SDS011;59485;43.542;-5.676;2023-04-24T12:08:05;12.60;;;3.13;;
71637;SDS011;59485;43.542;-5.676;2023-04-24T12:10:34;8.30;;;2.10;;
71637;SDS011;59485;43.542;-5.676;2023-04-24T12:13:00;9.32;;;2.33;;
71637;SDS011;59485;43.542;-5.676;2023-04-24T12:15:29;7.93;;;1.60;;
71637;SDS011;59485;43.542;-5.676;2023-04-24T12:17:57;8.63;;;1.83;;
71637;SDS011;59485;43.542;-5.676;2023-04-24T12:22:52;8.00;;;2.28;;
71637;SDS011;59485;43.542;-5.676;2023-04-24T12:25:20;9.50;;;1.90;;
71637;SDS011;59485;43.542;-5.676;2023-04-24T12:32:58;9.40;;;1.98;;
71637;SDS011;59485;43.542;-5.676;2023-04-24T12:38:08;9.83;;;2.33;;
71637;SDS011;59485;43.542;-5.676;2023-04-24T12:40:35;8.80;;;2.42;;
71637;SDS011;59485;43.542;-5.676;2023-04-24T12:43:01;7.35;;;2.28;;
71637;SDS011;59485;43.542;-5.676;2023-04-24T12:47:52;8.13;;;2.05;;
71637;SDS011;59485;43.542;-5.676;2023-04-24T12:50:23;7.70;;;1.70;;
71637;SDS011;59485;43.542;-5.676;2023-04-24T12:52:52;12.00;;;2.40;;
71637;SDS011;59485;43.542;-5.676;2023-04-24T12:55:18;8.20;;;2.33;;
71637;SDS011;59485;43.542;-5.676;2023-04-24T12:57:43;7.57;;;1.70;;
71637;SDS011;59485;43.542;-5.676;2023-04-24T13:00:15;9.52;;;2.30;;
71637;SDS011;59485;43.542;-5.676;2023-04-24T13:02:46;11.57;;;2.77;;
71637;SDS011;59485;43.542;-5.676;2023-04-24T13:05:18;7.90;;;2.55;;
71637;SDS011;59485;43.542;-5.676;2023-04-24T13:07:44;10.38;;;3.38;;
71637;SDS011;59485;43.542;-5.676;2023-04-24T13:10:10;8.20;;;2.50;;
71637;SDS011;59485;43.542;-5.676;2023-04-24T13:12:52;8.65;;;2.53;;
71637;SDS011;59485;43.542;-5.676;2023-04-24T13:15:27;14.60;;;5.32;;
71637;SDS011;59485;43.542;-5.676;2023-04-24T13:17:52;11.63;;;3.97;;
71637;SDS011;59485;43.542;-5.676;2023-04-24T13:20:18;13.43;;;3.97;;
71637;SDS011;59485;43.542;-5.676;2023-04-24T13:22:44;16.50;;;7.70;;
71637;SDS011;59485;43.542;-5.676;2023-04-24T13:25:09;13.85;;;3.75;;
71637;SDS011;59485;43.542;-5.676;2023-04-24T13:27:35;8.17;;;2.73;;
71637;SDS011;59485;43.542;-5.676;2023-04-24T13:30:09;10.15;;;3.55;;
71637;SDS011;59485;43.542;-5.676;2023-04-24T13:35:03;10.10;;;2.78;;
71637;SDS011;59485;43.542;-5.676;2023-04-24T13:40:13;8.05;;;1.85;;
71637;SDS011;59485;43.542;-5.676;2023-04-24T13:42:46;10.13;;;2.20;;
71637;SDS011;59485;43.542;-5.676;2023-04-24T13:45:11;10.85;;;2.30;;
71637;SDS011;59485;43.542;-5.676;2023-04-24T13:50:02;6.72;;;2.00;;
71637;SDS011;59485;43.542;-5.676;2023-04-24T13:52:44;8.80;;;2.40;;
71637;SDS011;59485;43.542;-5.676;2023-04-24T13:55:18;6.50;;;1.90;;
71637;SDS011;59485;43.542;-5.676;2023-04-24T14:00:14;9.88;;;3.83;;
71637;SDS011;59485;43.542;-5.676;2023-04-24T14:02:55;8.83;;;2.80;;
71637;SDS011;59485;43.542;-5.676;2023-04-24T14:05:29;7.70;;;2.38;;
71637;SDS011;59485;43.542;-5.676;2023-04-24T14:10:42;7.22;;;1.55;;
71637;SDS011;59485;43.542;-5.676;2023-04-24T14:13:42;5.30;;;1.60;;
71637;SDS011;59485;43.542;-5.676;2023-04-24T14:16:20;6.43;;;1.90;;
71637;SDS011;59485;43.542;-5.676;2023-04-24T14:18:45;6.22;;;1.60;;
71637;SDS011;59485;43.542;-5.676;2023-04-24T14:21:11;6.03;;;1.43;;
71637;SDS011;59485;43.542;-5.676;2023-04-24T14:23:36;6.30;;;1.20;;
71637;SDS011;59485;43.542;-5.676;2023-04-24T14:26:14;7.43;;;1.70;;
71637;SDS011;59485;43.542;-5.676;2023-04-24T14:31:05;5.95;;;1.75;;
71637;SDS011;59485;43.542;-5.676;2023-04-24T14:36:06;6.47;;;1.27;;
71637;SDS011;59485;43.542;-5.676;2023-04-24T14:41:30;7.80;;;1.87;;
71637;SDS011;59485;43.542;-5.676;2023-04-24T14:44:02;4.82;;;1.67;;
71637;SDS011;59485;43.542;-5.676;2023-04-24T14:46:38;6.47;;;1.48;;
71637;SDS011;59485;43.542;-5.676;2023-04-24T14:49:04;5.32;;;1.40;;
71637;SDS011;59485;43.542;-5.676;2023-04-24T14:51:32;4.43;;;1.10;;
71637;SDS011;59485;43.542;-5.676;2023-04-24T14:53:58;6.65;;;1.27;;
71637;SDS011;59485;43.542;-5.676;2023-04-24T14:56:23;5.47;;;1.80;;
71637;SDS011;59485;43.542;-5.676;2023-04-24T14:58:49;7.20;;;1.70;;
71637;SDS011;59485;43.542;-5.676;2023-04-24T15:01:14;4.97;;;1.30;;
71637;SDS011;59485;43.542;-5.676;2023-04-24T15:03:40;5.13;;;1.30;;
71637;SDS011;59485;43.542;-5.676;2023-04-24T15:06:06;6.47;;;1.37;;
71637;SDS011;59485;43.542;-5.676;2023-04-24T15:08:31;7.28;;;1.30;;
71637;SDS011;59485;43.542;-5.676;2023-04-24T15:10:57;7.23;;;2.07;;
71637;SDS011;59485;43.542;-5.676;2023-04-24T15:13:23;6.22;;;1.23;;
71637;SDS011;59485;43.542;-5.676;2023-04-24T15:15:48;8.27;;;1.67;;
71637;SDS011;59485;43.542;-5.676;2023-04-24T15:18:14;5.35;;;1.10;;
71637;SDS011;59485;43.542;-5.676;2023-04-24T15:20:39;7.33;;;1.60;;
71637;SDS011;59485;43.542;-5.676;2023-04-24T15:23:07;7.53;;;1.67;;
71637;SDS011;59485;43.542;-5.676;2023-04-24T15:25:36;4.72;;;1.30;;